createdAt,value
2023-04-10T00:00:00.327Z,14.7
2023-04-10T00:05:00.422Z,17.2
2023-04-10T00:10:00.271Z,16.1
2023-04-10T00:15:00.288Z,16.4
2023-04-10T00:20:00.291Z,16.5
2023-04-10T00:25:00.293Z,16.7
2023-04-10T00:30:00.241Z,17.2
2023-04-10T00:35:00.334Z,14.3
2023-04-10T00:40:00.269Z,17.9
2023-04-10T00:45:00.290Z,16.8
2023-04-10T00:50:00.265Z,15.3
2023-04-10T00:55:00.287Z,15.7
2023-04-10T01:00:00.282Z,15.6
2023-04-10T01:05:00.272Z,15.1
2023-04-10T01:10:00.240Z,14.3
2023-04-10T01:15:00.286Z,16.7
2023-04-10T01:20:00.273Z,16.1
2023-04-10T01:25:00.298Z,14.6
2023-04-10T01:30:00.238Z,15.5
2023-04-10T01:35:00.307Z,13.9
2023-04-10T01:40:00.281Z,15.1
2023-04-10T01:45:00.310Z,15.1
2023-04-10T01:50:00.268Z,16.4
2023-04-10T01:55:01.840Z,15.1
2023-04-10T02:00:00.328Z,15.1
2023-04-10T02:05:00.350Z,15.8
2023-04-10T02:10:00.241Z,14.3
2023-04-10T02:15:00.306Z,15.3
2023-04-10T02:20:00.293Z,14.5
2023-04-10T02:25:00.276Z,15.9
2023-04-10T02:30:00.319Z,15.0
2023-04-10T02:35:00.287Z,15.0
2023-04-10T02:40:00.282Z,15.6
2023-04-10T02:45:00.245Z,15.8
2023-04-10T02:50:00.292Z,14.7
2023-04-10T02:55:00.249Z,14.9
2023-04-10T03:00:00.297Z,16.8
2023-04-10T03:05:00.397Z,15.1
2023-04-10T03:10:00.295Z,15.8
2023-04-10T03:15:00.252Z,15.4
2023-04-10T03:20:00.300Z,14.5
2023-04-10T03:25:00.297Z,15.2
2023-04-10T03:30:00.300Z,14.9
2023-04-10T03:35:00.247Z,14.8
2023-04-10T03:40:00.290Z,15.6
2023-04-10T03:45:00.271Z,16.7
2023-04-10T03:50:00.292Z,14.7
2023-04-10T03:55:01.603Z,14.7
2023-04-10T04:00:00.256Z,14.3
2023-04-10T04:05:00.314Z,15.4
2023-04-10T04:10:00.277Z,14.7
2023-04-10T04:15:00.284Z,14.5
2023-04-10T04:20:00.323Z,14.2
2023-04-10T04:25:00.302Z,15.0
2023-04-10T04:30:00.310Z,15.5
2023-04-10T04:35:00.299Z,14.9
2023-04-10T04:40:00.291Z,14.1
2023-04-10T04:45:00.275Z,15.5
2023-04-10T04:50:00.301Z,15.4
2023-04-10T04:55:00.285Z,16.1
2023-04-10T05:00:00.352Z,15.4
2023-04-10T05:05:00.307Z,15.2
2023-04-10T05:10:00.316Z,16.4
2023-04-10T05:15:00.397Z,16.5
2023-04-10T05:20:00.279Z,16.0
2023-04-10T05:25:00.275Z,15.1
2023-04-10T05:30:00.239Z,16.6
2023-04-10T05:35:00.290Z,14.8
2023-04-10T05:40:00.283Z,16.0
2023-04-10T05:45:00.277Z,15.1
2023-04-10T05:50:00.263Z,15.6
2023-04-10T05:55:00.292Z,16.0
2023-04-10T06:00:00.347Z,15.0
2023-04-10T06:05:00.315Z,15.3
2023-04-10T06:10:00.320Z,15.9
2023-04-10T06:15:00.250Z,15.1
2023-04-10T06:20:00.274Z,14.6
2023-04-10T06:25:00.283Z,13.8
2023-04-10T06:30:00.300Z,15.0
2023-04-10T06:35:00.270Z,15.0
2023-04-10T06:40:00.288Z,16.4
2023-04-10T06:45:00.275Z,14.7
2023-04-10T06:50:00.266Z,14.0
2023-04-10T06:55:00.306Z,15.7
2023-04-10T07:00:00.278Z,14.8
2023-04-10T07:05:00.284Z,16.2
2023-04-10T07:10:00.268Z,15.1
2023-04-10T07:15:00.279Z,14.5
2023-04-10T07:20:00.293Z,15.6
2023-04-10T07:25:00.279Z,14.0
2023-04-10T07:30:00.304Z,14.9
2023-04-10T07:35:00.290Z,15.9
2023-04-10T07:40:00.276Z,15.5
2023-04-10T07:45:00.306Z,13.7
2023-04-10T07:50:00.301Z,14.7
2023-04-10T07:55:00.288Z,13.5
2023-04-10T08:00:00.256Z,13.5
2023-04-10T08:05:00.524Z,13.9
2023-04-10T08:10:00.284Z,13.5
2023-04-10T08:15:00.299Z,13.3
2023-04-10T08:20:00.272Z,13.1
2023-04-10T08:25:00.271Z,12.5
2023-04-10T08:30:00.325Z,12.6
2023-04-10T08:35:00.267Z,11.8
2023-04-10T08:40:00.284Z,12.1
2023-04-10T08:45:00.274Z,12.5
2023-04-10T08:50:00.291Z,12.2
2023-04-10T08:55:00.249Z,11.1
2023-04-10T09:00:04.058Z,11.1
2023-04-10T09:05:00.242Z,11.6
2023-04-10T09:10:00.277Z,11.5
2023-04-10T09:15:00.279Z,10.4
2023-04-10T09:20:00.291Z,9.7
2023-04-10T09:25:00.250Z,10.3
2023-04-10T09:30:00.300Z,9.0
2023-04-10T09:35:00.243Z,9.7
2023-04-10T09:40:00.289Z,8.3
2023-04-10T09:45:00.287Z,8.2
2023-04-10T09:50:00.282Z,8.9
2023-04-10T09:55:00.241Z,8.9
2023-04-10T10:00:00.345Z,8.0
2023-04-10T10:05:00.339Z,8.1
2023-04-10T10:10:00.233Z,7.3
2023-04-10T10:15:00.270Z,7.7
2023-04-10T10:20:00.261Z,8.1
2023-04-10T10:25:00.313Z,7.4
2023-04-10T10:30:03.039Z,6.9
2023-04-10T10:35:00.295Z,6.9
2023-04-10T10:40:00.297Z,5.9
2023-04-10T10:45:00.285Z,5.6
2023-04-10T10:50:00.285Z,5.7
2023-04-10T10:55:00.330Z,5.5
2023-04-10T11:00:00.303Z,5.1
2023-04-10T11:05:00.286Z,4.8
2023-04-10T11:10:00.277Z,4.5
2023-04-10T11:15:00.359Z,4.3
2023-04-10T11:20:00.292Z,4.5
2023-04-10T11:25:00.411Z,4.4
2023-04-10T11:30:00.334Z,4.5
2023-04-10T11:35:00.598Z,4.3
2023-04-10T11:40:00.274Z,3.6
2023-04-10T11:45:00.271Z,3.6
2023-04-10T11:50:00.306Z,3.0
2023-04-10T11:55:00.242Z,4.1
2023-04-10T12:00:00.281Z,3.2
2023-04-10T12:05:00.311Z,3.5
2023-04-10T12:10:00.283Z,3.4
2023-04-10T12:15:00.249Z,3.6
2023-04-10T12:20:00.282Z,3.6
2023-04-10T12:25:00.249Z,3.7
2023-04-10T12:30:00.259Z,3.3
2023-04-10T12:35:00.290Z,3.4
2023-04-10T12:40:00.308Z,2.9
2023-04-10T12:45:00.283Z,3.6
2023-04-10T12:50:00.283Z,2.4
2023-04-10T12:55:00.281Z,2.5
2023-04-10T13:00:00.291Z,2.2
2023-04-10T13:05:00.236Z,2.9
2023-04-10T13:10:00.377Z,2.4
2023-04-10T13:15:00.272Z,2.3
2023-04-10T13:20:00.296Z,3.0
2023-04-10T13:25:00.251Z,2.3
2023-04-10T13:30:00.290Z,2.9
2023-04-10T13:35:00.236Z,2.7
2023-04-10T13:40:00.300Z,2.6
2023-04-10T13:45:00.310Z,2.6
2023-04-10T13:50:00.307Z,2.4
2023-04-10T13:55:00.246Z,2.7
2023-04-10T14:00:00.276Z,2.8
2023-04-10T14:05:00.306Z,2.7
2023-04-10T14:10:00.295Z,2.7
2023-04-10T14:15:00.253Z,3.2
2023-04-10T14:20:00.304Z,3.2
2023-04-10T14:25:11.772Z,3.2
2023-04-10T14:30:00.293Z,3.7
2023-04-10T14:35:00.239Z,3.2
2023-04-10T14:40:00.290Z,3.6
2023-04-10T14:45:00.246Z,4.0
2023-04-10T14:50:00.273Z,3.8
2023-04-10T14:55:00.273Z,3.8
2023-04-10T15:00:00.296Z,3.5
2023-04-10T15:05:00.243Z,3.6
2023-04-10T15:10:00.302Z,3.4
2023-04-10T15:15:00.282Z,3.7
2023-04-10T15:20:00.348Z,3.6
2023-04-10T15:25:00.250Z,3.7
2023-04-10T15:30:00.293Z,3.5
2023-04-10T15:35:00.289Z,3.5
2023-04-10T15:40:00.282Z,2.4
2023-04-10T15:45:00.240Z,4.5
2023-04-10T15:50:02.297Z,3.7
2023-04-10T15:55:00.254Z,2.4
2023-04-10T16:00:00.297Z,2.4
2023-04-10T16:05:00.377Z,2.9
2023-04-10T16:10:00.287Z,2.8
2023-04-10T16:15:00.250Z,2.4
2023-04-10T16:20:00.367Z,3.1
2023-04-10T16:25:00.291Z,2.7
2023-04-10T16:30:00.273Z,2.7
2023-04-10T16:35:00.248Z,2.7
2023-04-10T16:40:00.346Z,2.9
2023-04-10T16:45:00.251Z,2.4
2023-04-10T16:50:00.429Z,3.2
2023-04-10T16:55:00.286Z,3.3
2023-04-10T17:00:00.480Z,2.6
2023-04-10T17:05:00.240Z,3.1
2023-04-10T17:10:00.529Z,3.5
2023-04-10T17:15:00.293Z,3.2
2023-04-10T17:20:00.306Z,3.8
2023-04-10T17:25:00.246Z,3.4
2023-04-10T17:30:00.297Z,3.4
2023-04-10T17:35:00.278Z,4.7
2023-04-10T17:40:00.287Z,3.6
2023-04-10T17:45:00.248Z,3.8
2023-04-10T17:50:00.318Z,3.1
2023-04-10T17:55:00.244Z,4.1
2023-04-10T18:00:00.289Z,3.2
2023-04-10T18:05:00.278Z,3.2
2023-04-10T18:10:00.290Z,3.6
2023-04-10T18:15:00.243Z,3.4
2023-04-10T18:20:00.310Z,4.1
2023-04-10T18:25:00.244Z,3.4
2023-04-10T18:30:00.280Z,4.0
2023-04-10T18:35:00.316Z,4.4
2023-04-10T18:40:09.901Z,4.2
2023-04-10T18:45:00.310Z,4.3
2023-04-10T18:50:00.265Z,4.9
2023-04-10T18:55:00.332Z,5.0
2023-04-10T19:00:00.246Z,5.3
2023-04-10T19:05:00.281Z,4.9
2023-04-10T19:10:00.327Z,5.1
2023-04-10T19:15:00.329Z,5.5
2023-04-10T19:20:00.242Z,5.4
2023-04-10T19:25:00.299Z,4.4
2023-04-10T19:30:00.298Z,4.7
2023-04-10T19:35:00.302Z,4.2
2023-04-10T19:40:00.289Z,5.1
2023-04-10T19:45:00.283Z,5.1
2023-04-10T19:50:00.285Z,5.0
2023-04-10T19:55:00.303Z,4.9
2023-04-10T20:00:00.231Z,4.7
2023-04-10T20:05:00.370Z,4.9
2023-04-10T20:10:00.270Z,4.0
2023-04-10T20:15:00.333Z,4.6
2023-04-10T20:20:00.288Z,4.6
2023-04-10T20:25:00.278Z,4.2
2023-04-10T20:30:00.331Z,5.6
2023-04-10T20:35:00.275Z,4.8
2023-04-10T20:40:00.293Z,4.1
2023-04-10T20:45:00.337Z,4.1
2023-04-10T20:50:00.266Z,3.8
2023-04-10T20:55:00.258Z,5.7
2023-04-10T21:00:00.269Z,4.8
2023-04-10T21:05:00.267Z,4.2
2023-04-10T21:10:00.346Z,5.3
2023-04-10T21:15:00.238Z,4.5
2023-04-10T21:20:00.286Z,4.2
2023-04-10T21:25:00.250Z,4.5
2023-04-10T21:30:00.300Z,4.4
2023-04-10T21:35:00.321Z,4.1
2023-04-10T21:45:00.578Z,2.4
2023-04-10T21:50:00.572Z,2.5
2023-04-10T21:55:00.562Z,2.0
2023-04-10T22:00:00.531Z,2.1
2023-04-10T22:05:00.619Z,1.8
2023-04-10T22:10:00.553Z,2.0
2023-04-10T22:15:00.550Z,1.9
2023-04-10T22:20:00.522Z,1.9
2023-04-10T22:25:00.745Z,1.6
2023-04-10T22:30:03.806Z,2.4
2023-04-10T22:35:00.562Z,2.3
2023-04-10T22:40:00.592Z,2.7
2023-04-10T22:45:00.571Z,3.1
2023-04-10T22:50:00.593Z,2.5
2023-04-10T22:55:00.575Z,3.0
2023-04-10T23:00:01.024Z,2.0
2023-04-10T23:05:00.586Z,3.0
2023-04-10T23:10:00.541Z,2.0
2023-04-10T23:15:00.565Z,2.0
2023-04-10T23:20:00.531Z,1.8
2023-04-10T23:25:00.554Z,2.2
2023-04-10T23:30:00.547Z,1.8
2023-04-10T23:35:00.555Z,2.0
2023-04-10T23:40:00.589Z,2.0
2023-04-10T23:45:00.573Z,2.4
2023-04-10T23:50:00.572Z,2.0
2023-04-10T23:55:00.543Z,1.9
